Time,TemperatureF,DewpointF,PressureIn,WindDirection,WindDirectionDegrees,WindSpeedMPH,WindSpeedGustMPH,Humidity,HourlyPrecipIn,Conditions,Clouds,dailyrainin,SoftwareType,DateUTC
2013-07-09 00:02:00,65.0,65.0,-100.00,ENE,75,0.0,0.0,98,-99.99,,,-99.99,,2013-07-09 05:02:00,
2013-07-09 00:11:00,64.0,64.0,-100.00,ENE,70,0.0,0.0,98,-99.99,,,-99.99,,2013-07-09 05:11:00,
2013-07-09 00:34:00,64.0,64.0,-100.00,ENE,70,0.0,0.0,98,-99.99,,,-99.99,,2013-07-09 05:34:00,
2013-07-09 00:42:00,64.0,64.0,-100.00,ENE,70,0.0,0.0,98,-99.99,,,-99.99,,2013-07-09 05:42:00,
2013-07-09 00:52:00,64.0,64.0,-100.00,ENE,70,0.0,0.0,98,-99.99,,,-99.99,,2013-07-09 05:52:00,
2013-07-09 01:01:00,64.0,64.0,-100.00,ENE,70,0.0,0.0,98,-99.99,,,-99.99,,2013-07-09 06:01:00,
2013-07-09 01:34:00,65.0,65.0,-100.00,NE,35,0.0,0.0,98,-99.99,,,-99.99,,2013-07-09 06:34:00,
2013-07-09 01:43:00,65.0,65.0,-100.00,NE,35,0.0,0.0,98,-99.99,,,-99.99,,2013-07-09 06:43:00,
2013-07-09 01:53:00,65.0,65.0,-100.00,NE,35,0.0,0.0,98,-99.99,,,-99.99,,2013-07-09 06:53:00,
2013-07-09 02:02:00,65.0,65.0,-100.00,NE,35,0.0,0.0,98,-99.99,,,-99.99,,2013-07-09 07:02:00,
2013-07-09 02:10:00,64.0,64.0,-100.00,ENE,65,0.0,0.0,98,-99.99,,,-99.99,,2013-07-09 07:10:00,
2013-07-09 02:34:00,64.0,64.0,-100.00,ENE,65,0.0,0.0,98,-99.99,,,-99.99,,2013-07-09 07:34:00,
2013-07-09 02:43:00,64.0,64.0,-100.00,ENE,65,0.0,0.0,98,-99.99,,,-99.99,,2013-07-09 07:43:00,
2013-07-09 02:53:00,64.0,64.0,-100.00,ENE,65,0.0,0.0,98,-99.99,,,-99.99,,2013-07-09 07:53:00,
2013-07-09 03:01:00,64.0,64.0,-100.00,ENE,65,0.0,0.0,98,-99.99,,,-99.99,,2013-07-09 08:01:00,
2013-07-09 03:11:00,64.0,63.0,-100.00,NE,45,0.0,0.0,98,-99.99,,,-99.99,,2013-07-09 08:11:00,
2013-07-09 03:33:00,64.0,63.0,-100.00,NE,45,0.0,0.0,98,-99.99,,,-99.99,,2013-07-09 08:33:00,
2013-07-09 03:43:00,64.0,63.0,-100.00,NE,45,0.0,0.0,98,-99.99,,,-99.99,,2013-07-09 08:43:00,
2013-07-09 03:52:00,64.0,63.0,-100.00,NE,45,0.0,0.0,98,-99.99,,,-99.99,,2013-07-09 08:52:00,
2013-07-09 04:02:00,64.0,63.0,-100.00,NE,45,0.0,0.0,98,-99.99,,,-99.99,,2013-07-09 09:02:00,
2013-07-09 04:34:00,65.0,65.0,-100.00,NE,50,0.0,0.0,98,-99.99,,,-99.99,,2013-07-09 09:34:00,
2013-07-09 04:42:00,65.0,65.0,-100.00,NE,50,0.0,0.0,98,-99.99,,,-99.99,,2013-07-09 09:42:00,
2013-07-09 04:53:00,65.0,65.0,-100.00,NE,50,0.0,0.0,98,-99.99,,,-99.99,,2013-07-09 09:53:00,
2013-07-09 05:01:00,65.0,65.0,-100.00,NE,50,0.0,0.0,98,-99.99,,,-99.99,,2013-07-09 10:01:00,
2013-07-09 05:34:00,65.0,65.0,-100.00,NE,40,0.0,0.0,98,-99.99,,,-99.99,,2013-07-09 10:34:00,
2013-07-09 05:42:00,65.0,65.0,-100.00,NE,40,0.0,0.0,98,-99.99,,,-99.99,,2013-07-09 10:42:00,
2013-07-09 05:52:00,65.0,65.0,-100.00,NE,40,0.0,0.0,98,-99.99,,,-99.99,,2013-07-09 10:52:00,
2013-07-09 06:01:00,65.0,65.0,-100.00,NE,40,0.0,0.0,98,-99.99,,,-99.99,,2013-07-09 11:01:00,
2013-07-09 06:11:00,65.0,65.0,-100.00,ENE,70,0.0,0.0,98,-99.99,,,-99.99,,2013-07-09 11:11:00,
2013-07-09 06:34:00,65.0,65.0,-100.00,ENE,70,0.0,0.0,98,-99.99,,,-99.99,,2013-07-09 11:34:00,
2013-07-09 06:42:00,65.0,65.0,-100.00,ENE,70,0.0,0.0,98,-99.99,,,-99.99,,2013-07-09 11:42:00,
2013-07-09 06:53:00,65.0,65.0,-100.00,ENE,70,0.0,0.0,98,-99.99,,,-99.99,,2013-07-09 11:53:00,
2013-07-09 07:02:00,65.0,65.0,-100.00,ENE,70,0.0,0.0,98,-99.99,,,-99.99,,2013-07-09 12:02:00,
2013-07-09 07:10:00,67.0,66.0,-100.00,ENE,60,1.0,3.0,98,-99.99,,,-99.99,,2013-07-09 12:10:00,
2013-07-09 07:33:00,67.0,66.0,-100.00,ENE,60,1.0,3.0,98,-99.99,,,-99.99,,2013-07-09 12:33:00,
2013-07-09 07:43:00,67.0,66.0,-100.00,ENE,60,1.0,3.0,98,-99.99,,,-99.99,,2013-07-09 12:43:00,
2013-07-09 07:53:00,67.0,66.0,-100.00,ENE,60,1.0,3.0,98,-99.99,,,-99.99,,2013-07-09 12:53:00,
2013-07-09 08:01:00,67.0,66.0,-100.00,ENE,60,1.0,3.0,98,-99.99,,,-99.99,,2013-07-09 13:01:00,
2013-07-09 08:11:00,69.0,68.0,-100.00,ENE,65,2.0,4.0,98,-99.99,,,-99.99,,2013-07-09 13:11:00,
2013-07-09 08:33:00,69.0,68.0,-100.00,ENE,65,2.0,4.0,98,-99.99,,,-99.99,,2013-07-09 13:33:00,
2013-07-09 08:43:00,69.0,68.0,-100.00,ENE,65,2.0,4.0,98,-99.99,,,-99.99,,2013-07-09 13:43:00,
2013-07-09 08:53:00,69.0,68.0,-100.00,ENE,65,2.0,4.0,98,-99.99,,,-99.99,,2013-07-09 13:53:00,
2013-07-09 09:01:00,69.0,68.0,-100.00,ENE,65,2.0,4.0,98,-99.99,,,-99.99,,2013-07-09 14:01:00,
2013-07-09 09:11:00,69.0,69.0,-100.00,East,85,3.0,5.0,98,-99.99,,,-99.99,,2013-07-09 14:11:00,
2013-07-09 09:34:00,69.0,69.0,-100.00,East,85,3.0,5.0,98,-99.99,,,-99.99,,2013-07-09 14:34:00,
2013-07-09 09:43:00,69.0,69.0,-100.00,East,85,3.0,5.0,98,-99.99,,,-99.99,,2013-07-09 14:43:00,
2013-07-09 09:53:00,69.0,69.0,-100.00,East,85,3.0,5.0,98,-99.99,,,-99.99,,2013-07-09 14:53:00,
2013-07-09 10:02:00,69.0,69.0,-100.00,East,85,3.0,5.0,98,-99.99,,,-99.99,,2013-07-09 15:02:00,
2013-07-09 10:10:00,68.0,67.0,-100.00,SSE,150,2.0,9.0,98,-99.99,,,-99.99,,2013-07-09 15:10:00,
2013-07-09 10:34:00,68.0,67.0,-100.00,SSE,150,2.0,9.0,98,-99.99,,,-99.99,,2013-07-09 15:34:00,
2013-07-09 10:43:00,68.0,67.0,-100.00,SSE,150,2.0,9.0,98,-99.99,,,-99.99,,2013-07-09 15:43:00,
2013-07-09 10:52:00,68.0,67.0,-100.00,SSE,150,2.0,9.0,98,-99.99,,,-99.99,,2013-07-09 15:52:00,
2013-07-09 11:02:00,68.0,67.0,-100.00,SSE,150,2.0,9.0,98,-99.99,,,-99.99,,2013-07-09 16:02:00,
2013-07-09 11:34:00,69.0,68.0,-100.00,SE,145,5.0,12.0,98,-99.99,,,-99.99,,2013-07-09 16:34:00,
2013-07-09 11:43:00,69.0,68.0,-100.00,SE,145,5.0,12.0,98,-99.99,,,-99.99,,2013-07-09 16:43:00,
2013-07-09 11:53:00,69.0,68.0,-100.00,SE,145,5.0,12.0,98,-99.99,,,-99.99,,2013-07-09 16:53:00,
2013-07-09 12:02:00,69.0,68.0,-100.00,SE,145,5.0,12.0,98,-99.99,,,-99.99,,2013-07-09 17:02:00,
2013-07-09 12:35:00,73.0,70.0,-100.00,SW,225,6.0,13.0,92,-99.99,,,-99.99,,2013-07-09 17:35:00,
2013-07-09 12:45:00,73.0,70.0,-100.00,SW,225,6.0,13.0,92,-99.99,,,-99.99,,2013-07-09 17:45:00,
2013-07-09 12:53:00,73.0,70.0,-100.00,SW,225,6.0,13.0,92,-99.99,,,-99.99,,2013-07-09 17:53:00,
2013-07-09 13:02:00,73.0,70.0,-100.00,SW,225,6.0,13.0,92,-99.99,,,-99.99,,2013-07-09 18:02:00,
2013-07-09 13:11:00,73.0,70.0,-100.00,SW,225,6.0,13.0,92,-99.99,,,-99.99,,2013-07-09 18:11:00,
2013-07-09 13:32:00,75.0,67.0,-100.00,WSW,240,8.0,18.0,77,-99.99,,,-99.99,,2013-07-09 18:32:00,
2013-07-09 13:43:00,75.0,67.0,-100.00,WSW,240,8.0,18.0,77,-99.99,,,-99.99,,2013-07-09 18:43:00,
2013-07-09 13:52:00,75.0,67.0,-100.00,WSW,240,8.0,18.0,77,-99.99,,,-99.99,,2013-07-09 18:52:00,
2013-07-09 14:00:00,76.0,69.0,-100.00,WSW,245,6.0,26.0,78,-99.99,,,-99.99,,2013-07-09 19:00:00,
2013-07-09 14:01:00,75.0,67.0,-100.00,WSW,240,8.0,18.0,77,-99.99,,,-99.99,,2013-07-09 19:01:00,
2013-07-09 14:33:00,76.0,69.0,-100.00,WSW,245,6.0,26.0,78,-99.99,,,-99.99,,2013-07-09 19:33:00,
2013-07-09 14:42:00,76.0,69.0,-100.00,WSW,245,6.0,26.0,78,-99.99,,,-99.99,,2013-07-09 19:42:00,
2013-07-09 14:52:00,76.0,69.0,-100.00,WSW,245,6.0,26.0,78,-99.99,,,-99.99,,2013-07-09 19:52:00,
2013-07-09 15:32:00,77.0,67.0,-100.00,WSW,255,9.0,12.0,70,-99.99,,,-99.99,,2013-07-09 20:32:00,
2013-07-09 15:43:00,77.0,67.0,-100.00,WSW,255,9.0,12.0,70,-99.99,,,-99.99,,2013-07-09 20:43:00,
2013-07-09 15:52:00,77.0,67.0,-100.00,WSW,255,9.0,12.0,70,-99.99,,,-99.99,,2013-07-09 20:52:00,
2013-07-09 16:01:00,77.0,67.0,-100.00,WSW,255,9.0,12.0,70,-99.99,,,-99.99,,2013-07-09 21:01:00,
2013-07-09 16:32:00,80.0,67.0,-100.00,West,260,9.0,15.0,66,-99.99,,,-99.99,,2013-07-09 21:32:00,
2013-07-09 16:42:00,80.0,67.0,-100.00,West,260,9.0,15.0,66,-99.99,,,-99.99,,2013-07-09 21:42:00,
2013-07-09 16:52:00,80.0,67.0,-100.00,West,260,9.0,15.0,66,-99.99,,,-99.99,,2013-07-09 21:52:00,
2013-07-09 17:01:00,80.0,67.0,-100.00,West,260,9.0,15.0,66,-99.99,,,-99.99,,2013-07-09 22:01:00,
2013-07-09 17:11:00,82.0,62.0,-100.00,West,265,9.0,17.0,52,-99.99,,,-99.99,,2013-07-09 22:11:00,
2013-07-09 17:33:00,82.0,62.0,-100.00,West,265,9.0,17.0,52,-99.99,,,-99.99,,2013-07-09 22:33:00,
2013-07-09 17:42:00,82.0,62.0,-100.00,West,265,9.0,17.0,52,-99.99,,,-99.99,,2013-07-09 22:42:00,
2013-07-09 17:53:00,82.0,62.0,-100.00,West,265,9.0,17.0,52,-99.99,,,-99.99,,2013-07-09 22:53:00,
2013-07-09 18:10:00,82.0,62.0,-100.00,WNW,285,8.0,14.0,51,-99.99,,,-99.99,,2013-07-09 23:10:00,
2013-07-09 18:43:00,82.0,62.0,-100.00,WNW,285,8.0,14.0,51,-99.99,,,-99.99,,2013-07-09 23:43:00,
2013-07-09 18:53:00,82.0,62.0,-100.00,WNW,285,8.0,14.0,51,-99.99,,,-99.99,,2013-07-09 23:53:00,
2013-07-09 19:01:00,82.0,62.0,-100.00,WNW,285,8.0,14.0,51,-99.99,,,-99.99,,2013-07-10 00:01:00,
2013-07-09 19:11:00,82.0,62.0,-100.00,West,270,7.0,11.0,52,-99.99,,,-99.99,,2013-07-10 00:11:00,
2013-07-09 19:33:00,82.0,62.0,-100.00,West,270,7.0,11.0,52,-99.99,,,-99.99,,2013-07-10 00:33:00,
2013-07-09 19:43:00,82.0,62.0,-100.00,West,270,7.0,11.0,52,-99.99,,,-99.99,,2013-07-10 00:43:00,
2013-07-09 19:52:00,82.0,62.0,-100.00,West,270,7.0,11.0,52,-99.99,,,-99.99,,2013-07-10 00:52:00,
2013-07-09 20:01:00,82.0,62.0,-100.00,West,270,7.0,11.0,52,-99.99,,,-99.99,,2013-07-10 01:01:00,
2013-07-09 20:10:00,80.0,64.0,-100.00,West,280,6.0,12.0,58,-99.99,,,-99.99,,2013-07-10 01:10:00,
2013-07-09 20:33:00,80.0,64.0,-100.00,West,280,6.0,12.0,58,-99.99,,,-99.99,,2013-07-10 01:33:00,
2013-07-09 20:43:00,80.0,64.0,-100.00,West,280,6.0,12.0,58,-99.99,,,-99.99,,2013-07-10 01:43:00,
2013-07-09 20:53:00,80.0,64.0,-100.00,West,280,6.0,12.0,58,-99.99,,,-99.99,,2013-07-10 01:53:00,
2013-07-09 21:02:00,80.0,64.0,-100.00,West,280,6.0,12.0,58,-99.99,,,-99.99,,2013-07-10 02:02:00,
2013-07-09 21:11:00,75.0,67.0,-100.00,WSW,255,3.0,5.0,77,-99.99,,,-99.99,,2013-07-10 02:11:00,
2013-07-09 21:34:00,75.0,67.0,-100.00,WSW,255,3.0,5.0,77,-99.99,,,-99.99,,2013-07-10 02:34:00,
2013-07-09 21:43:00,75.0,67.0,-100.00,WSW,255,3.0,5.0,77,-99.99,,,-99.99,,2013-07-10 02:43:00,
2013-07-09 21:53:00,75.0,67.0,-100.00,WSW,255,3.0,5.0,77,-99.99,,,-99.99,,2013-07-10 02:53:00,
2013-07-09 22:01:00,75.0,67.0,-100.00,WSW,255,3.0,5.0,77,-99.99,,,-99.99,,2013-07-10 03:01:00,
2013-07-09 22:10:00,73.0,67.0,-100.00,West,275,9.0,18.0,83,-99.99,,,-99.99,,2013-07-10 03:10:00,
2013-07-09 22:32:00,73.0,67.0,-100.00,West,275,9.0,18.0,83,-99.99,,,-99.99,,2013-07-10 03:32:00,
2013-07-09 22:43:00,73.0,67.0,-100.00,West,275,9.0,18.0,83,-99.99,,,-99.99,,2013-07-10 03:43:00,
2013-07-09 22:52:00,73.0,67.0,-100.00,West,275,9.0,18.0,83,-99.99,,,-99.99,,2013-07-10 03:52:00,
2013-07-09 23:01:00,73.0,67.0,-100.00,West,275,9.0,18.0,83,-99.99,,,-99.99,,2013-07-10 04:01:00,
2013-07-09 23:10:00,70.0,62.0,-100.00,West,275,4.0,12.0,77,-99.99,,,-99.99,,2013-07-10 04:10:00,
2013-07-09 23:33:00,70.0,62.0,-100.00,West,275,4.0,12.0,77,-99.99,,,-99.99,,2013-07-10 04:33:00,
2013-07-09 23:43:00,70.0,62.0,-100.00,West,275,4.0,12.0,77,-99.99,,,-99.99,,2013-07-10 04:43:00,
2013-07-09 23:52:00,70.0,62.0,-100.00,West,275,4.0,12.0,77,-99.99,,,-99.99,,2013-07-10 04:52:00,